Meteorología y climatología de Navarra
Datos de la estación - Meteo Navarra

Estación de Erremendia (Salazar) GN

Altitud 1047 m.


Datos desde el 23/05/2020 hasta el 24/05/2020 en horario solar
Los datos son PROVISIONALES

Anterior Página 1 de 1 Siguiente Descargar: Formato para Excel 2000 o superior   Formato csv   Formato para OpenOffice Calc
Fecha Temperatura Humedad relativa Radiación global Insolación Precipitación Vel. viento 10 m Vel. viento 10 m Dir. viento 10 m
ºC % W/m² s l/m² m/s km/h º
23/05/2020 0:00 13.4 98 0.0 0 0.0 1.5 5.5 263
23/05/2020 0:10 13.3 98 0.0 0 0.0 1.6 5.9 265
23/05/2020 0:20 13.2 98 0.0 0 0.0 1.0 3.7 260
23/05/2020 0:30 13.1 98 0.0 0 0.0 1.1 4.0 267
23/05/2020 0:40 13.0 98 0.0 0 0.0 0.7 2.7 287
23/05/2020 0:50 13.0 98 0.0 0 0.0 0.4 1.3 265
23/05/2020 1:00 12.9 98 0.0 0 0.0 0.8 3.0 283
23/05/2020 1:10 12.8 98 0.0 0 0.0 1.2 4.2 288
23/05/2020 1:20 12.7 98 0.0 0 0.0 1.0 3.7 254
23/05/2020 1:30 12.4 98 0.0 0 0.0 1.1 4.1 274
23/05/2020 1:40 12.3 98 0.0 0 0.0 1.3 4.7 285
23/05/2020 1:50 12.1 98 0.0 0 0.0 1.0 3.7 269
23/05/2020 2:00 12.0 98 0.0 0 0.0 1.8 6.5 285
23/05/2020 2:10 11.9 98 0.0 0 0.0 2.7 9.8 281
23/05/2020 2:20 11.7 98 0.0 0 0.0 2.1 7.5 279
23/05/2020 2:30 11.6 98 0.0 0 0.0 3.0 10.6 276
23/05/2020 2:40 11.5 98 0.0 0 0.0 1.9 6.7 272
23/05/2020 2:50 11.4 98 0.0 0 0.0 1.8 6.3 258
23/05/2020 3:00 11.4 98 0.0 0 0.0 1.6 5.9 253
23/05/2020 3:10 11.3 98 0.0 0 0.0 1.7 6.0 244
23/05/2020 3:20 11.3 97 0.0 0 0.0 1.8 6.4 235
23/05/2020 3:30 11.3 97 0.0 0 0.0 1.6 5.6 246
23/05/2020 3:40 11.2 97 0.0 0 0.0 0.7 2.5 209
23/05/2020 3:50 11.1 97 0.0 0 0.0 1.4 4.9 243
23/05/2020 4:00 11.1 97 0.0 0 0.0 1.1 3.9 247
23/05/2020 4:10 11.1 97 0.0 0 0.0 0.7 2.5 255
23/05/2020 4:20 11.1 97 0.0 0 0.0 1.3 4.8 222
23/05/2020 4:30 11.0 97 0.0 0 0.0 1.2 4.3 241
23/05/2020 4:40 11.0 97 0.0 0 0.0 1.1 3.9 267
23/05/2020 4:50 11.0 97 0.0 0 0.0 1.1 4.0 269
23/05/2020 5:00 11.0 97 0.0 0 0.0 1.0 3.7 266
23/05/2020 5:10 10.9 97 11.5 0 0.0 0.8 3.0 251
23/05/2020 5:20 11.1 97 28.8 0 0.0 0.9 3.3 268
23/05/2020 5:30 11.1 97 47.9 0 0.0 0.9 3.3 263
23/05/2020 5:40 11.2 97 50.7 0 0.0 1.1 3.9 269
23/05/2020 5:50 11.3 97 71.3 76 0.0 1.0 3.5 260
23/05/2020 6:00 11.7 97 97.8 182 0.0 0.7 2.6 251
23/05/2020 6:10 11.9 96 113.1 144 0.0 1.0 3.5 269
23/05/2020 6:20 11.9 96 108.6 80 0.0 0.8 2.7 248
23/05/2020 6:30 12.1 95 208.5 486 0.0 1.1 3.9 269
23/05/2020 6:40 12.5 93 237.2 510 0.0 1.3 4.8 277
23/05/2020 6:50 13.0 91 370.7 600 0.0 1.9 6.8 277
23/05/2020 7:00 13.7 87 285.4 360 0.0 1.6 5.9 292
23/05/2020 7:10 13.4 87 263.5 534 0.0 1.9 6.8 282
23/05/2020 7:20 13.3 88 129.5 34 0.0 1.8 6.6 273
23/05/2020 7:30 13.2 89 214.5 160 0.0 1.6 5.6 281
23/05/2020 7:40 13.3 88 233.8 0 0.0 1.7 5.9 292
23/05/2020 7:50 13.3 87 214.4 0 0.0 2.4 8.7 287
23/05/2020 8:00 13.3 88 260.3 114 0.0 2.1 7.7 290
23/05/2020 8:10 13.4 86 312.9 212 0.0 2.0 7.1 291
23/05/2020 8:20 13.6 86 272.7 0 0.0 1.8 6.4 295
23/05/2020 8:30 13.8 85 305.8 46 0.0 2.1 7.6 285
23/05/2020 8:40 13.7 84 247.7 2 0.0 1.8 6.4 273
23/05/2020 8:50 13.7 84 263.3 0 0.0 2.1 7.4 298
23/05/2020 9:00 14.0 84 418.5 428 0.0 2.2 7.9 300
23/05/2020 9:10 14.0 82 392.1 250 0.0 1.7 6.3 289
23/05/2020 9:20 14.3 82 365.9 254 0.0 1.6 5.9 298
23/05/2020 9:30 14.5 82 425.9 326 0.0 2.1 7.5 303
23/05/2020 9:40 14.7 80 407.7 240 0.0 2.5 9.0 303
23/05/2020 9:50 14.2 82 365.0 58 0.0 2.1 7.4 308
23/05/2020 10:00 14.6 82 450.5 162 0.0 2.0 7.2 318
23/05/2020 10:10 14.8 78 590.3 502 0.0 3.4 12.3 336
23/05/2020 10:20 14.8 79 491.5 438 0.0 3.2 11.4 344
23/05/2020 10:30 15.0 78 802.0 600 0.0 3.3 12.0 338
23/05/2020 10:40 15.2 77 660.1 600 0.0 3.2 11.6 316
23/05/2020 10:50 14.2 80 343.7 12 0.0 3.6 12.8 303
23/05/2020 11:00 14.0 80 660.2 324 0.0 3.2 11.6 348
23/05/2020 11:10 14.4 77 917.0 572 0.0 3.0 10.8 351
23/05/2020 11:20 14.1 77 542.0 472 0.0 3.3 11.8 304
23/05/2020 11:30 13.8 79 663.7 570 0.0 2.6 9.3 312
23/05/2020 11:40 13.6 79 611.8 400 0.0 3.5 12.7 341
23/05/2020 11:50 13.2 79 641.8 442 0.0 4.2 15.0 345
23/05/2020 12:00 13.3 80 970.0 600 0.0 2.7 9.8 325
23/05/2020 12:10 13.8 78 809.0 494 0.0 3.0 10.8 302
23/05/2020 12:20 13.7 78 616.4 600 0.0 2.6 9.4 314
23/05/2020 12:30 13.3 78 559.9 600 0.0 2.8 10.0 330
23/05/2020 12:40 13.1 78 635.1 414 0.0 3.6 12.8 310
23/05/2020 12:50 13.1 78 711.2 600 0.0 4.0 14.3 335
23/05/2020 13:00 12.9 78 546.6 418 0.0 3.5 12.4 299
23/05/2020 13:10 12.7 79 582.6 516 0.0 3.2 11.4 311
23/05/2020 13:20 12.4 79 431.8 88 0.0 3.2 11.6 301
23/05/2020 13:30 12.3 80 580.2 448 0.0 2.9 10.5 310
23/05/2020 13:40 12.7 79 666.7 534 0.0 2.9 10.5 326
23/05/2020 13:50 12.9 77 450.5 216 0.0 3.0 10.7 299
23/05/2020 14:00 13.5 77 845.0 558 0.0 2.9 10.4 287
23/05/2020 14:10 13.3 77 449.0 274 0.0 3.2 11.5 308
23/05/2020 14:20 12.3 79 322.7 54 0.0 3.4 12.3 305
23/05/2020 14:30 11.6 82 375.5 20 0.0 2.9 10.6 321
23/05/2020 14:40 11.6 83 335.1 0 0.0 2.7 9.8 305
23/05/2020 14:50 11.6 84 301.9 0 0.0 2.8 9.9 303
23/05/2020 15:00 11.1 85 276.5 0 0.0 2.7 9.7 309
23/05/2020 15:10 11.2 85 260.8 0 0.0 2.3 8.2 301
23/05/2020 15:20 11.1 85 230.1 0 0.0 1.8 6.4 311
23/05/2020 15:30 11.0 84 263.3 0 0.0 2.7 9.6 302
23/05/2020 15:40 11.1 83 263.4 0 0.0 2.4 8.8 315
23/05/2020 15:50 10.8 82 267.4 0 0.0 2.7 9.6 327
23/05/2020 16:00 10.5 83 230.8 0 0.0 2.8 10.2 321
23/05/2020 16:10 10.5 83 249.5 50 0.0 1.9 6.9 327
23/05/2020 16:20 10.5 82 211.1 0 0.0 2.6 9.3 317
23/05/2020 16:30 10.5 83 233.8 44 0.0 2.8 10.0 300
23/05/2020 16:40 10.6 83 188.7 0 0.0 2.7 9.7 325
23/05/2020 16:50 10.3 83 281.2 260 0.0 2.8 10.2 299
23/05/2020 17:00 10.8 82 226.6 152 0.0 2.8 10.0 313
23/05/2020 17:10 10.6 81 297.9 340 0.0 2.8 10.2 312
23/05/2020 17:20 10.8 81 295.0 438 0.0 2.6 9.3 300
23/05/2020 17:30 11.3 78 291.4 540 0.0 2.1 7.6 301
23/05/2020 17:40 11.4 77 282.8 600 0.0 2.1 7.4 295
23/05/2020 17:50 11.7 77 250.1 600 0.0 1.6 5.9 285
23/05/2020 18:00 11.8 77 219.0 600 0.0 1.9 6.7 292
23/05/2020 18:10 11.3 79 188.7 600 0.0 2.2 7.9 298
23/05/2020 18:20 10.6 82 137.7 466 0.0 2.2 8.1 299
23/05/2020 18:30 9.7 86 55.1 100 0.0 2.4 8.7 308
23/05/2020 18:40 9.4 87 32.5 6 0.0 3.1 11.3 307
23/05/2020 18:50 9.0 89 22.3 0 0.0 2.9 10.3 308
23/05/2020 19:00 8.9 90 27.2 0 0.0 2.2 7.8 311
23/05/2020 19:10 8.9 90 10.1 0 0.0 1.3 4.6 308
23/05/2020 19:20 8.8 90 0.0 0 0.0 1.7 6.2 310
23/05/2020 19:30 8.7 91 0.0 0 0.0 1.9 6.9 297
23/05/2020 19:40 8.6 92 0.0 0 0.0 2.1 7.5 276
23/05/2020 19:50 8.3 93 0.0 0 0.0 1.5 5.3 272
23/05/2020 20:00 8.2 93 0.0 0 0.0 1.3 4.8 289
23/05/2020 20:10 8.1 94 0.0 0 0.0 1.6 5.6 281
23/05/2020 20:20 8.1 94 0.0 0 0.0 1.4 5.0 285
23/05/2020 20:30 8.1 94 0.0 0 0.0 1.8 6.3 306
23/05/2020 20:40 7.9 93 0.0 0 0.0 1.2 4.2 286
23/05/2020 20:50 8.0 94 0.0 0 0.0 1.6 5.7 287
23/05/2020 21:00 7.9 93 0.0 0 0.0 1.0 3.4 299
23/05/2020 21:10 7.2 93 0.0 0 0.0 0.2 0.7 216
23/05/2020 21:20 6.5 94 0.0 0 0.0 0.5 1.8 269
23/05/2020 21:30 6.2 94 0.0 0 0.0 0.7 2.3 256
23/05/2020 21:40 6.5 96 0.0 0 0.0 1.1 3.9 251
23/05/2020 21:50 6.8 96 0.0 0 0.0 1.0 3.7 280
23/05/2020 22:00 6.9 96 0.0 0 0.0 1.0 3.6 294
23/05/2020 22:10 7.0 96 0.0 0 0.0 1.3 4.5 294
23/05/2020 22:20 7.1 96 0.0 0 0.0 1.3 4.8 291
23/05/2020 22:30 7.1 96 0.0 0 0.0 1.5 5.5 263
23/05/2020 22:40 7.2 97 0.0 0 0.0 1.2 4.2 272
23/05/2020 22:50 7.2 96 0.0 0 0.0 0.7 2.3 293
23/05/2020 23:00 6.8 96 0.0 0 0.0 0.9 3.2 283
23/05/2020 23:10 6.8 97 0.0 0 0.0 0.8 3.0 279
23/05/2020 23:20 6.7 97 0.0 0 0.0 0.9 3.3 283
23/05/2020 23:30 6.9 97 0.0 0 0.0 0.6 2.0 260
23/05/2020 23:40 6.8 97 0.0 0 0.0 0.7 2.4 261
23/05/2020 23:50 7.0 97 0.0 0 0.0 0.6 2.3 283
Anterior Página 1 de 1 Siguiente

NOTA: Tipo de datos según el color:
   - Valores diarios o 10 minutos correctos
   - Valores diarios calculados a partir de un número de datos 10 minutos menor que 144 y mayor que 120, o de un número de datos semihorarios menor que 48 y mayor que 40 (caso de las estaciones de INTIA y del Ministerio)
   - Valores diez minutos estimados


Contacto        Enlaces        Aviso legal